sensor_id;sensor_type;location;lat;lon;timestamp;temperature;humidity
8214;DHT22;4148;47.974;7.824;2022-12-18T00:01:28;-5.20;99.90
8214;DHT22;4148;47.974;7.824;2022-12-18T00:03:56;-5.40;99.90
8214;DHT22;4148;47.974;7.824;2022-12-18T00:06:26;-5.20;99.90
8214;DHT22;4148;47.974;7.824;2022-12-18T00:08:56;-5.20;99.90
8214;DHT22;4148;47.974;7.824;2022-12-18T00:11:26;-5.20;99.90
8214;DHT22;4148;47.974;7.824;2022-12-18T00:13:56;-4.90;99.90
8214;DHT22;4148;47.974;7.824;2022-12-18T00:16:27;-5.00;99.90
8214;DHT22;4148;47.974;7.824;2022-12-18T00:18:57;-5.10;99.90
8214;DHT22;4148;47.974;7.824;2022-12-18T00:21:25;-5.30;99.90
8214;DHT22;4148;47.974;7.824;2022-12-18T00:23:53;-5.30;99.90
8214;DHT22;4148;47.974;7.824;2022-12-18T00:26:23;-5.20;99.90
8214;DHT22;4148;47.974;7.824;2022-12-18T00:28:51;-5.30;99.90
8214;DHT22;4148;47.974;7.824;2022-12-18T00:31:21;-5.20;99.90
8214;DHT22;4148;47.974;7.824;2022-12-18T00:33:51;-5.10;99.90
8214;DHT22;4148;47.974;7.824;2022-12-18T00:36:22;-5.20;99.90
8214;DHT22;4148;47.974;7.824;2022-12-18T00:38:51;-5.30;99.90
8214;DHT22;4148;47.974;7.824;2022-12-18T00:41:19;-5.30;99.90
8214;DHT22;4148;47.974;7.824;2022-12-18T00:44:01;-5.30;99.90
8214;DHT22;4148;47.974;7.824;2022-12-18T00:46:30;-5.40;99.90
8214;DHT22;4148;47.974;7.824;2022-12-18T00:48:59;-5.60;99.90
8214;DHT22;4148;47.974;7.824;2022-12-18T00:51:27;-5.80;99.90
8214;DHT22;4148;47.974;7.824;2022-12-18T00:53:55;-5.70;99.90
8214;DHT22;4148;47.974;7.824;2022-12-18T00:56:23;-5.80;99.90
8214;DHT22;4148;47.974;7.824;2022-12-18T00:58:52;-5.80;99.90
8214;DHT22;4148;47.974;7.824;2022-12-18T01:01:20;-5.80;99.90
8214;DHT22;4148;47.974;7.824;2022-12-18T01:03:48;-5.80;99.90
8214;DHT22;4148;47.974;7.824;2022-12-18T01:06:17;-5.80;99.90
8214;DHT22;4148;47.974;7.824;2022-12-18T01:08:45;-5.80;99.90
8214;DHT22;4148;47.974;7.824;2022-12-18T01:11:15;-5.80;99.90
8214;DHT22;4148;47.974;7.824;2022-12-18T01:13:43;-5.90;99.90
8214;DHT22;4148;47.974;7.824;2022-12-18T01:16:12;-5.90;99.90
8214;DHT22;4148;47.974;7.824;2022-12-18T01:18:40;-5.90;99.90
8214;DHT22;4148;47.974;7.824;2022-12-18T01:21:10;-5.80;99.90
8214;DHT22;4148;47.974;7.824;2022-12-18T01:23:40;-5.70;99.90
8214;DHT22;4148;47.974;7.824;2022-12-18T01:26:13;-5.70;99.90
8214;DHT22;4148;47.974;7.824;2022-12-18T01:28:41;-5.70;99.90
8214;DHT22;4148;47.974;7.824;2022-12-18T01:31:15;-5.50;99.90
8214;DHT22;4148;47.974;7.824;2022-12-18T01:33:44;-5.60;99.90
8214;DHT22;4148;47.974;7.824;2022-12-18T01:36:16;-5.90;99.90
8214;DHT22;4148;47.974;7.824;2022-12-18T01:38:46;-5.70;99.90
8214;DHT22;4148;47.974;7.824;2022-12-18T01:41:16;-5.70;99.90
8214;DHT22;4148;47.974;7.824;2022-12-18T01:43:48;-5.60;99.90
8214;DHT22;4148;47.974;7.824;2022-12-18T01:46:18;-5.60;99.90
8214;DHT22;4148;47.974;7.824;2022-12-18T01:48:48;-5.70;99.90
8214;DHT22;4148;47.974;7.824;2022-12-18T01:51:17;-5.60;99.90
8214;DHT22;4148;47.974;7.824;2022-12-18T01:53:47;-5.60;99.90
8214;DHT22;4148;47.974;7.824;2022-12-18T01:56:18;-5.60;99.90
8214;DHT22;4148;47.974;7.824;2022-12-18T01:58:52;-5.70;99.90
8214;DHT22;4148;47.974;7.824;2022-12-18T02:01:22;-5.70;99.90
8214;DHT22;4148;47.974;7.824;2022-12-18T02:03:52;-5.80;99.90
8214;DHT22;4148;47.974;7.824;2022-12-18T02:06:23;-5.40;99.90
8214;DHT22;4148;47.974;7.824;2022-12-18T02:09:03;-5.20;99.90
8214;DHT22;4148;47.974;7.824;2022-12-18T02:11:42;-5.20;99.90
8214;DHT22;4148;47.974;7.824;2022-12-18T02:14:23;-5.50;99.90
8214;DHT22;4148;47.974;7.824;2022-12-18T02:16:59;-5.60;99.90
8214;DHT22;4148;47.974;7.824;2022-12-18T02:19:41;-5.60;99.90
8214;DHT22;4148;47.974;7.824;2022-12-18T02:22:24;-5.50;99.90
8214;DHT22;4148;47.974;7.824;2022-12-18T02:25:02;-5.70;99.90
8214;DHT22;4148;47.974;7.824;2022-12-18T02:27:35;-5.80;99.90
8214;DHT22;4148;47.974;7.824;2022-12-18T02:30:06;-6.10;99.90
8214;DHT22;4148;47.974;7.824;2022-12-18T02:32:37;-5.90;99.90
8214;DHT22;4148;47.974;7.824;2022-12-18T02:35:10;-5.90;99.90
8214;DHT22;4148;47.974;7.824;2022-12-18T02:37:40;-5.90;99.90
8214;DHT22;4148;47.974;7.824;2022-12-18T02:40:10;-5.90;99.90
8214;DHT22;4148;47.974;7.824;2022-12-18T02:42:40;-5.80;99.90
8214;DHT22;4148;47.974;7.824;2022-12-18T02:45:09;-5.80;99.90
8214;DHT22;4148;47.974;7.824;2022-12-18T02:47:39;-5.80;99.90
8214;DHT22;4148;47.974;7.824;2022-12-18T02:50:16;-5.80;99.90
8214;DHT22;4148;47.974;7.824;2022-12-18T02:52:53;-6.00;99.90
8214;DHT22;4148;47.974;7.824;2022-12-18T02:55:31;-5.90;99.90
8214;DHT22;4148;47.974;7.824;2022-12-18T02:58:05;-6.00;99.90
8214;DHT22;4148;47.974;7.824;2022-12-18T03:00:41;-6.00;99.90
8214;DHT22;4148;47.974;7.824;2022-12-18T03:03:13;-6.10;99.90
8214;DHT22;4148;47.974;7.824;2022-12-18T03:05:47;-6.10;99.90
8214;DHT22;4148;47.974;7.824;2022-12-18T03:08:18;-6.10;99.90
8214;DHT22;4148;47.974;7.824;2022-12-18T03:10:50;-6.00;99.90
8214;DHT22;4148;47.974;7.824;2022-12-18T03:13:25;-6.10;99.90
8214;DHT22;4148;47.974;7.824;2022-12-18T03:15:56;-5.90;99.90
8214;DHT22;4148;47.974;7.824;2022-12-18T03:18:30;-5.90;99.90
8214;DHT22;4148;47.974;7.824;2022-12-18T03:21:05;-6.00;99.90
8214;DHT22;4148;47.974;7.824;2022-12-18T03:23:35;-6.00;99.90
8214;DHT22;4148;47.974;7.824;2022-12-18T03:26:07;-6.20;99.90
8214;DHT22;4148;47.974;7.824;2022-12-18T03:28:40;-6.00;99.90
8214;DHT22;4148;47.974;7.824;2022-12-18T03:31:11;-6.10;99.90
8214;DHT22;4148;47.974;7.824;2022-12-18T03:33:43;-6.00;99.90
8214;DHT22;4148;47.974;7.824;2022-12-18T03:36:13;-6.10;99.90
8214;DHT22;4148;47.974;7.824;2022-12-18T03:38:41;-6.20;99.90
8214;DHT22;4148;47.974;7.824;2022-12-18T03:41:15;-6.30;99.90
8214;DHT22;4148;47.974;7.824;2022-12-18T03:43:50;-6.20;99.90
8214;DHT22;4148;47.974;7.824;2022-12-18T03:46:26;-6.60;99.90
8214;DHT22;4148;47.974;7.824;2022-12-18T03:48:59;-6.60;99.90
8214;DHT22;4148;47.974;7.824;2022-12-18T03:51:37;-6.50;99.90
8214;DHT22;4148;47.974;7.824;2022-12-18T03:54:08;-6.50;99.90
8214;DHT22;4148;47.974;7.824;2022-12-18T03:56:40;-6.60;99.90
8214;DHT22;4148;47.974;7.824;2022-12-18T03:59:11;-6.60;99.90
8214;DHT22;4148;47.974;7.824;2022-12-18T04:01:42;-6.60;99.90
8214;DHT22;4148;47.974;7.824;2022-12-18T04:04:12;-6.70;99.90
8214;DHT22;4148;47.974;7.824;2022-12-18T04:06:43;-6.50;99.90
8214;DHT22;4148;47.974;7.824;2022-12-18T04:09:13;-6.50;99.90
8214;DHT22;4148;47.974;7.824;2022-12-18T04:11:41;-6.50;99.90
8214;DHT22;4148;47.974;7.824;2022-12-18T04:14:11;-6.60;99.90
8214;DHT22;4148;47.974;7.824;2022-12-18T04:16:44;-6.70;99.90
8214;DHT22;4148;47.974;7.824;2022-12-18T04:19:12;-6.80;99.90
8214;DHT22;4148;47.974;7.824;2022-12-18T04:21:40;-6.80;99.90
8214;DHT22;4148;47.974;7.824;2022-12-18T04:24:07;-6.60;99.90
8214;DHT22;4148;47.974;7.824;2022-12-18T04:26:36;-6.60;99.90
8214;DHT22;4148;47.974;7.824;2022-12-18T04:29:04;-6.70;99.90
8214;DHT22;4148;47.974;7.824;2022-12-18T04:31:34;-6.80;99.90
8214;DHT22;4148;47.974;7.824;2022-12-18T04:34:02;-6.60;99.90
8214;DHT22;4148;47.974;7.824;2022-12-18T04:36:30;-6.70;99.90
8214;DHT22;4148;47.974;7.824;2022-12-18T04:38:58;-6.70;99.90
8214;DHT22;4148;47.974;7.824;2022-12-18T04:41:25;-6.80;99.90
8214;DHT22;4148;47.974;7.824;2022-12-18T04:43:53;-6.80;99.90
8214;DHT22;4148;47.974;7.824;2022-12-18T04:46:21;-6.70;99.90
8214;DHT22;4148;47.974;7.824;2022-12-18T04:48:50;-6.80;99.90
8214;DHT22;4148;47.974;7.824;2022-12-18T04:51:18;-6.70;99.90
8214;DHT22;4148;47.974;7.824;2022-12-18T04:53:52;-6.70;99.90
8214;DHT22;4148;47.974;7.824;2022-12-18T04:56:20;-6.90;99.90
8214;DHT22;4148;47.974;7.824;2022-12-18T04:58:49;-6.90;99.90
8214;DHT22;4148;47.974;7.824;2022-12-18T05:01:17;-7.00;99.90
8214;DHT22;4148;47.974;7.824;2022-12-18T05:03:45;-6.90;99.90
8214;DHT22;4148;47.974;7.824;2022-12-18T05:06:15;-7.00;99.90
8214;DHT22;4148;47.974;7.824;2022-12-18T05:08:43;-7.00;99.90
8214;DHT22;4148;47.974;7.824;2022-12-18T05:11:13;-6.90;99.90
8214;DHT22;4148;47.974;7.824;2022-12-18T05:13:43;-7.00;99.90
8214;DHT22;4148;47.974;7.824;2022-12-18T05:16:12;-7.20;99.90
8214;DHT22;4148;47.974;7.824;2022-12-18T05:18:40;-7.10;99.90
8214;DHT22;4148;47.974;7.824;2022-12-18T05:21:08;-7.30;99.90
8214;DHT22;4148;47.974;7.824;2022-12-18T05:23:38;-7.30;99.90
8214;DHT22;4148;47.974;7.824;2022-12-18T05:26:06;-7.30;99.90
8214;DHT22;4148;47.974;7.824;2022-12-18T05:28:35;-7.30;99.90
8214;DHT22;4148;47.974;7.824;2022-12-18T05:31:04;-7.20;99.90
8214;DHT22;4148;47.974;7.824;2022-12-18T05:33:33;-7.20;99.90
8214;DHT22;4148;47.974;7.824;2022-12-18T05:36:03;-7.20;99.90
8214;DHT22;4148;47.974;7.824;2022-12-18T05:38:33;-7.40;99.90
8214;DHT22;4148;47.974;7.824;2022-12-18T05:41:03;-7.30;99.90
8214;DHT22;4148;47.974;7.824;2022-12-18T05:43:33;-6.90;99.90
8214;DHT22;4148;47.974;7.824;2022-12-18T05:46:03;-7.00;99.90
8214;DHT22;4148;47.974;7.824;2022-12-18T05:48:32;-7.20;99.90
8214;DHT22;4148;47.974;7.824;2022-12-18T05:51:04;-7.10;99.90
8214;DHT22;4148;47.974;7.824;2022-12-18T05:53:33;-7.30;99.90
8214;DHT22;4148;47.974;7.824;2022-12-18T05:56:06;-7.40;99.90
8214;DHT22;4148;47.974;7.824;2022-12-18T05:58:34;-7.50;99.90
8214;DHT22;4148;47.974;7.824;2022-12-18T06:01:07;-7.40;99.90
8214;DHT22;4148;47.974;7.824;2022-12-18T06:03:35;-7.40;99.90
8214;DHT22;4148;47.974;7.824;2022-12-18T06:06:11;-7.40;99.90
8214;DHT22;4148;47.974;7.824;2022-12-18T06:08:39;-7.30;99.90
8214;DHT22;4148;47.974;7.824;2022-12-18T06:11:18;-7.30;99.90
8214;DHT22;4148;47.974;7.824;2022-12-18T06:13:46;-7.40;99.90
8214;DHT22;4148;47.974;7.824;2022-12-18T06:16:14;-7.60;99.90
8214;DHT22;4148;47.974;7.824;2022-12-18T06:18:42;-7.60;99.90
8214;DHT22;4148;47.974;7.824;2022-12-18T06:21:10;-7.30;99.90
8214;DHT22;4148;47.974;7.824;2022-12-18T06:23:38;-7.50;99.90
8214;DHT22;4148;47.974;7.824;2022-12-18T06:26:08;-7.50;99.90
8214;DHT22;4148;47.974;7.824;2022-12-18T06:28:37;-7.60;99.90
8214;DHT22;4148;47.974;7.824;2022-12-18T06:31:06;-7.70;99.90
8214;DHT22;4148;47.974;7.824;2022-12-18T06:33:35;-7.70;99.90
8214;DHT22;4148;47.974;7.824;2022-12-18T06:36:05;-7.70;99.90
8214;DHT22;4148;47.974;7.824;2022-12-18T06:38:35;-7.60;99.90
8214;DHT22;4148;47.974;7.824;2022-12-18T06:41:07;-7.80;99.90
8214;DHT22;4148;47.974;7.824;2022-12-18T06:43:37;-7.90;99.90
8214;DHT22;4148;47.974;7.824;2022-12-18T06:46:06;-8.00;99.90
8214;DHT22;4148;47.974;7.824;2022-12-18T06:48:34;-8.00;99.90
8214;DHT22;4148;47.974;7.824;2022-12-18T06:51:02;-7.80;99.90
8214;DHT22;4148;47.974;7.824;2022-12-18T06:53:31;-8.00;99.90
8214;DHT22;4148;47.974;7.824;2022-12-18T06:56:00;-8.10;99.90
8214;DHT22;4148;47.974;7.824;2022-12-18T06:58:37;-8.10;99.90
8214;DHT22;4148;47.974;7.824;2022-12-18T07:01:07;-8.20;99.90
8214;DHT22;4148;47.974;7.824;2022-12-18T07:03:35;-8.20;99.90
8214;DHT22;4148;47.974;7.824;2022-12-18T07:06:04;-8.30;99.90
8214;DHT22;4148;47.974;7.824;2022-12-18T07:08:32;-8.30;99.90
8214;DHT22;4148;47.974;7.824;2022-12-18T07:11:03;-8.40;99.90
8214;DHT22;4148;47.974;7.824;2022-12-18T07:13:31;-8.40;99.90
8214;DHT22;4148;47.974;7.824;2022-12-18T07:16:08;-8.40;99.90
8214;DHT22;4148;47.974;7.824;2022-12-18T07:18:46;-8.40;99.90
8214;DHT22;4148;47.974;7.824;2022-12-18T07:21:16;-8.40;99.90
8214;DHT22;4148;47.974;7.824;2022-12-18T07:23:44;-8.40;99.90
8214;DHT22;4148;47.974;7.824;2022-12-18T07:26:16;-8.40;99.90
8214;DHT22;4148;47.974;7.824;2022-12-18T07:28:44;-8.30;99.90
8214;DHT22;4148;47.974;7.824;2022-12-18T07:31:16;-8.30;99.90
8214;DHT22;4148;47.974;7.824;2022-12-18T07:33:44;-8.40;99.90
8214;DHT22;4148;47.974;7.824;2022-12-18T07:36:13;-8.40;99.90
8214;DHT22;4148;47.974;7.824;2022-12-18T07:38:41;-8.00;99.90
8214;DHT22;4148;47.974;7.824;2022-12-18T07:41:11;-8.00;99.90
8214;DHT22;4148;47.974;7.824;2022-12-18T07:43:40;-8.20;99.90
8214;DHT22;4148;47.974;7.824;2022-12-18T07:46:09;-8.30;99.90
8214;DHT22;4148;47.974;7.824;2022-12-18T07:48:40;-8.20;99.90
8214;DHT22;4148;47.974;7.824;2022-12-18T07:51:11;-8.10;99.90
8214;DHT22;4148;47.974;7.824;2022-12-18T07:53:39;-8.10;99.90
8214;DHT22;4148;47.974;7.824;2022-12-18T07:56:10;-8.20;99.90
8214;DHT22;4148;47.974;7.824;2022-12-18T07:58:56;-8.30;99.90
8214;DHT22;4148;47.974;7.824;2022-12-18T08:01:24;-8.40;99.90
8214;DHT22;4148;47.974;7.824;2022-12-18T08:03:54;-8.50;99.90
8214;DHT22;4148;47.974;7.824;2022-12-18T08:06:22;-8.50;99.90
8214;DHT22;4148;47.974;7.824;2022-12-18T08:08:51;-8.50;99.90
8214;DHT22;4148;47.974;7.824;2022-12-18T08:11:20;-8.50;99.90
8214;DHT22;4148;47.974;7.824;2022-12-18T08:13:48;-8.30;99.90
8214;DHT22;4148;47.974;7.824;2022-12-18T08:16:16;-8.20;99.90
8214;DHT22;4148;47.974;7.824;2022-12-18T08:18:45;-8.30;99.90
8214;DHT22;4148;47.974;7.824;2022-12-18T08:21:17;-8.20;99.90
8214;DHT22;4148;47.974;7.824;2022-12-18T08:23:47;-8.30;99.90
8214;DHT22;4148;47.974;7.824;2022-12-18T08:26:17;-8.20;99.90
8214;DHT22;4148;47.974;7.824;2022-12-18T08:28:46;-8.00;99.90
8214;DHT22;4148;47.974;7.824;2022-12-18T08:31:15;-8.00;99.90
8214;DHT22;4148;47.974;7.824;2022-12-18T08:33:43;-7.50;99.90
8214;DHT22;4148;47.974;7.824;2022-12-18T08:36:13;-7.70;99.90
8214;DHT22;4148;47.974;7.824;2022-12-18T08:38:41;-7.80;99.90
8214;DHT22;4148;47.974;7.824;2022-12-18T08:41:11;-7.80;99.90
8214;DHT22;4148;47.974;7.824;2022-12-18T08:43:39;-7.70;99.90
8214;DHT22;4148;47.974;7.824;2022-12-18T08:46:26;-7.70;99.90
8214;DHT22;4148;47.974;7.824;2022-12-18T08:48:54;-7.70;99.90
8214;DHT22;4148;47.974;7.824;2022-12-18T08:51:24;-7.60;99.90
8214;DHT22;4148;47.974;7.824;2022-12-18T08:53:52;-7.70;99.90
8214;DHT22;4148;47.974;7.824;2022-12-18T08:56:20;-7.40;99.90
8214;DHT22;4148;47.974;7.824;2022-12-18T08:58:51;-7.30;99.90
8214;DHT22;4148;47.974;7.824;2022-12-18T09:01:20;-7.20;99.90
8214;DHT22;4148;47.974;7.824;2022-12-18T09:03:48;-7.00;99.90
8214;DHT22;4148;47.974;7.824;2022-12-18T09:06:17;-7.00;99.90
8214;DHT22;4148;47.974;7.824;2022-12-18T09:08:47;-7.00;99.90
8214;DHT22;4148;47.974;7.824;2022-12-18T09:11:19;-7.00;99.90
8214;DHT22;4148;47.974;7.824;2022-12-18T09:13:47;-6.90;99.90
8214;DHT22;4148;47.974;7.824;2022-12-18T09:16:15;-6.70;99.90
8214;DHT22;4148;47.974;7.824;2022-12-18T09:18:43;-6.60;99.90
8214;DHT22;4148;47.974;7.824;2022-12-18T09:21:13;-6.30;99.90
8214;DHT22;4148;47.974;7.824;2022-12-18T09:23:42;-6.40;99.90
8214;DHT22;4148;47.974;7.824;2022-12-18T09:26:11;-6.30;99.90
8214;DHT22;4148;47.974;7.824;2022-12-18T09:28:39;-6.10;99.90
8214;DHT22;4148;47.974;7.824;2022-12-18T09:31:08;-6.00;99.90
8214;DHT22;4148;47.974;7.824;2022-12-18T09:33:36;-5.90;99.90
8214;DHT22;4148;47.974;7.824;2022-12-18T09:36:08;-5.60;99.90
8214;DHT22;4148;47.974;7.824;2022-12-18T09:38:36;-5.40;99.90
8214;DHT22;4148;47.974;7.824;2022-12-18T09:41:13;-5.30;99.90
8214;DHT22;4148;47.974;7.824;2022-12-18T09:43:48;-5.10;99.90
8214;DHT22;4148;47.974;7.824;2022-12-18T09:46:24;-4.60;99.90
8214;DHT22;4148;47.974;7.824;2022-12-18T09:48:57;-4.60;99.90
8214;DHT22;4148;47.974;7.824;2022-12-18T09:51:30;-4.20;99.90
8214;DHT22;4148;47.974;7.824;2022-12-18T09:54:03;-3.90;99.90
8214;DHT22;4148;47.974;7.824;2022-12-18T09:56:36;-3.90;99.90
8214;DHT22;4148;47.974;7.824;2022-12-18T09:59:16;-3.70;99.90
8214;DHT22;4148;47.974;7.824;2022-12-18T10:01:45;-3.50;99.90
8214;DHT22;4148;47.974;7.824;2022-12-18T10:04:13;-3.20;99.90
8214;DHT22;4148;47.974;7.824;2022-12-18T10:06:47;-3.00;99.90
8214;DHT22;4148;47.974;7.824;2022-12-18T10:09:27;-2.90;99.90
8214;DHT22;4148;47.974;7.824;2022-12-18T10:12:07;-2.60;99.90
8214;DHT22;4148;47.974;7.824;2022-12-18T10:14:43;-2.50;99.90
8214;DHT22;4148;47.974;7.824;2022-12-18T10:17:19;-2.30;99.90
8214;DHT22;4148;47.974;7.824;2022-12-18T10:19:54;-2.40;99.90
8214;DHT22;4148;47.974;7.824;2022-12-18T10:22:35;-2.30;99.90
8214;DHT22;4148;47.974;7.824;2022-12-18T10:25:15;-1.90;99.90
8214;DHT22;4148;47.974;7.824;2022-12-18T10:27:45;-1.80;99.90
8214;DHT22;4148;47.974;7.824;2022-12-18T10:30:16;-1.50;99.90
8214;DHT22;4148;47.974;7.824;2022-12-18T10:32:45;-1.30;99.90
8214;DHT22;4148;47.974;7.824;2022-12-18T10:35:18;-1.30;99.90
8214;DHT22;4148;47.974;7.824;2022-12-18T10:38:01;-1.10;99.90
8214;DHT22;4148;47.974;7.824;2022-12-18T10:40:30;-1.00;99.90
8214;DHT22;4148;47.974;7.824;2022-12-18T10:43:12;-1.00;99.90
8214;DHT22;4148;47.974;7.824;2022-12-18T10:45:42;-0.70;99.90
8214;DHT22;4148;47.974;7.824;2022-12-18T10:48:25;-0.40;99.90
8214;DHT22;4148;47.974;7.824;2022-12-18T10:50:53;0.00;99.90
8214;DHT22;4148;47.974;7.824;2022-12-18T10:53:41;0.50;99.90
8214;DHT22;4148;47.974;7.824;2022-12-18T10:56:10;0.40;99.90
8214;DHT22;4148;47.974;7.824;2022-12-18T10:58:38;0.20;99.90
8214;DHT22;4148;47.974;7.824;2022-12-18T11:01:11;0.10;99.90
8214;DHT22;4148;47.974;7.824;2022-12-18T11:03:40;0.30;99.90
8214;DHT22;4148;47.974;7.824;2022-12-18T11:06:11;0.00;99.90
8214;DHT22;4148;47.974;7.824;2022-12-18T11:08:41;-0.10;99.90
8214;DHT22;4148;47.974;7.824;2022-12-18T11:11:19;0.00;99.90
8214;DHT22;4148;47.974;7.824;2022-12-18T11:13:58;0.30;99.90
8214;DHT22;4148;47.974;7.824;2022-12-18T11:16:29;0.50;99.90
8214;DHT22;4148;47.974;7.824;2022-12-18T11:19:19;0.20;99.90
8214;DHT22;4148;47.974;7.824;2022-12-18T11:21:49;0.10;99.90
8214;DHT22;4148;47.974;7.824;2022-12-18T11:24:30;0.60;99.90
8214;DHT22;4148;47.974;7.824;2022-12-18T11:27:01;0.40;99.90
8214;DHT22;4148;47.974;7.824;2022-12-18T11:29:33;0.20;99.90
8214;DHT22;4148;47.974;7.824;2022-12-18T11:32:24;-0.20;99.90
8214;DHT22;4148;47.974;7.824;2022-12-18T11:35:00;-0.20;99.90
8214;DHT22;4148;47.974;7.824;2022-12-18T11:37:31;0.10;99.90
8214;DHT22;4148;47.974;7.824;2022-12-18T11:40:05;0.10;99.90
8214;DHT22;4148;47.974;7.824;2022-12-18T11:42:39;-0.30;99.90
8214;DHT22;4148;47.974;7.824;2022-12-18T11:45:23;-0.50;99.90
8214;DHT22;4148;47.974;7.824;2022-12-18T11:47:57;-0.60;99.90
8214;DHT22;4148;47.974;7.824;2022-12-18T11:50:31;-0.80;99.90
8214;DHT22;4148;47.974;7.824;2022-12-18T11:53:00;-0.90;99.90
8214;DHT22;4148;47.974;7.824;2022-12-18T11:55:38;-1.10;99.90
8214;DHT22;4148;47.974;7.824;2022-12-18T11:58:12;-1.10;99.90
8214;DHT22;4148;47.974;7.824;2022-12-18T12:00:49;-0.60;99.90
8214;DHT22;4148;47.974;7.824;2022-12-18T12:03:40;-0.70;99.90
8214;DHT22;4148;47.974;7.824;2022-12-18T12:06:14;-0.70;99.90
8214;DHT22;4148;47.974;7.824;2022-12-18T12:08:56;-0.60;99.90
8214;DHT22;4148;47.974;7.824;2022-12-18T12:11:35;-0.30;99.90
8214;DHT22;4148;47.974;7.824;2022-12-18T12:14:15;-0.60;99.90
8214;DHT22;4148;47.974;7.824;2022-12-18T12:16:52;-0.90;99.90
8214;DHT22;4148;47.974;7.824;2022-12-18T12:19:32;-1.00;99.90
8214;DHT22;4148;47.974;7.824;2022-12-18T12:22:09;-0.90;99.90
8214;DHT22;4148;47.974;7.824;2022-12-18T12:24:47;-1.00;99.90
8214;DHT22;4148;47.974;7.824;2022-12-18T12:27:22;-0.90;99.90
8214;DHT22;4148;47.974;7.824;2022-12-18T12:30:00;-0.90;99.90
8214;DHT22;4148;47.974;7.824;2022-12-18T12:32:41;-1.00;99.90
8214;DHT22;4148;47.974;7.824;2022-12-18T12:35:25;-1.20;99.90
8214;DHT22;4148;47.974;7.824;2022-12-18T12:38:05;-1.10;99.90
8214;DHT22;4148;47.974;7.824;2022-12-18T12:40:37;-1.20;99.90
8214;DHT22;4148;47.974;7.824;2022-12-18T12:43:33;-1.40;99.90
8214;DHT22;4148;47.974;7.824;2022-12-18T12:46:04;-1.50;99.90
8214;DHT22;4148;47.974;7.824;2022-12-18T12:48:38;-1.40;99.90
8214;DHT22;4148;47.974;7.824;2022-12-18T12:51:15;-1.50;99.90
8214;DHT22;4148;47.974;7.824;2022-12-18T12:53:45;-1.50;99.90
8214;DHT22;4148;47.974;7.824;2022-12-18T12:56:15;-1.40;99.90
8214;DHT22;4148;47.974;7.824;2022-12-18T12:58:55;-1.50;99.90
8214;DHT22;4148;47.974;7.824;2022-12-18T13:01:34;-1.60;99.90
8214;DHT22;4148;47.974;7.824;2022-12-18T13:04:15;-1.60;99.90
8214;DHT22;4148;47.974;7.824;2022-12-18T13:06:56;-1.70;99.90
8214;DHT22;4148;47.974;7.824;2022-12-18T13:09:30;-1.70;99.90
8214;DHT22;4148;47.974;7.824;2022-12-18T13:12:02;-1.80;99.90
8214;DHT22;4148;47.974;7.824;2022-12-18T13:14:48;-1.70;99.90
8214;DHT22;4148;47.974;7.824;2022-12-18T13:17:28;-1.60;99.90
8214;DHT22;4148;47.974;7.824;2022-12-18T13:20:11;-1.70;99.90
8214;DHT22;4148;47.974;7.824;2022-12-18T13:22:45;-1.70;99.90
8214;DHT22;4148;47.974;7.824;2022-12-18T13:25:32;-1.60;99.90
8214;DHT22;4148;47.974;7.824;2022-12-18T13:28:11;-1.40;99.90
8214;DHT22;4148;47.974;7.824;2022-12-18T13:30:51;-1.40;99.90
8214;DHT22;4148;47.974;7.824;2022-12-18T13:33:42;-1.20;99.90
8214;DHT22;4148;47.974;7.824;2022-12-18T13:36:32;-1.10;99.90
8214;DHT22;4148;47.974;7.824;2022-12-18T13:39:33;-1.00;99.90
8214;DHT22;4148;47.974;7.824;2022-12-18T13:42:31;-1.10;99.90
8214;DHT22;4148;47.974;7.824;2022-12-18T13:45:42;-1.10;99.90
8214;DHT22;4148;47.974;7.824;2022-12-18T13:48:18;-1.20;99.90
8214;DHT22;4148;47.974;7.824;2022-12-18T13:50:49;-1.10;99.90
8214;DHT22;4148;47.974;7.824;2022-12-18T13:53:22;-0.90;99.90
8214;DHT22;4148;47.974;7.824;2022-12-18T13:55:52;-0.90;99.90
8214;DHT22;4148;47.974;7.824;2022-12-18T13:58:20;-1.10;99.90
8214;DHT22;4148;47.974;7.824;2022-12-18T14:00:48;-1.00;99.90
8214;DHT22;4148;47.974;7.824;2022-12-18T14:03:20;-1.10;99.90
8214;DHT22;4148;47.974;7.824;2022-12-18T14:05:54;-1.00;99.90
8214;DHT22;4148;47.974;7.824;2022-12-18T14:08:23;-1.00;99.90
8214;DHT22;4148;47.974;7.824;2022-12-18T14:10:55;-1.00;99.90
8214;DHT22;4148;47.974;7.824;2022-12-18T14:13:27;-1.10;99.90
8214;DHT22;4148;47.974;7.824;2022-12-18T14:15:57;-1.50;99.90
8214;DHT22;4148;47.974;7.824;2022-12-18T14:18:34;-1.60;99.90
8214;DHT22;4148;47.974;7.824;2022-12-18T14:21:05;-1.50;99.90
8214;DHT22;4148;47.974;7.824;2022-12-18T14:23:35;-1.60;99.90
8214;DHT22;4148;47.974;7.824;2022-12-18T14:26:21;-1.60;99.90
8214;DHT22;4148;47.974;7.824;2022-12-18T14:28:50;-1.50;99.90
8214;DHT22;4148;47.974;7.824;2022-12-18T14:31:18;-1.50;99.90
8214;DHT22;4148;47.974;7.824;2022-12-18T14:33:47;-1.60;99.90
8214;DHT22;4148;47.974;7.824;2022-12-18T14:36:16;-1.70;99.90
8214;DHT22;4148;47.974;7.824;2022-12-18T14:38:49;-1.80;99.90
8214;DHT22;4148;47.974;7.824;2022-12-18T14:41:19;-1.60;99.90
8214;DHT22;4148;47.974;7.824;2022-12-18T14:43:48;-1.70;99.90
8214;DHT22;4148;47.974;7.824;2022-12-18T14:46:28;-1.80;99.90
8214;DHT22;4148;47.974;7.824;2022-12-18T14:48:57;-1.50;99.90
8214;DHT22;4148;47.974;7.824;2022-12-18T14:51:25;-1.40;99.90
8214;DHT22;4148;47.974;7.824;2022-12-18T14:53:56;-1.40;99.90
8214;DHT22;4148;47.974;7.824;2022-12-18T14:56:27;-1.40;99.90
8214;DHT22;4148;47.974;7.824;2022-12-18T14:58:58;-1.50;99.90
8214;DHT22;4148;47.974;7.824;2022-12-18T15:01:29;-1.50;99.90
8214;DHT22;4148;47.974;7.824;2022-12-18T15:03:58;-1.60;99.90
8214;DHT22;4148;47.974;7.824;2022-12-18T15:06:30;-1.80;99.90
8214;DHT22;4148;47.974;7.824;2022-12-18T15:09:00;-1.90;99.90
8214;DHT22;4148;47.974;7.824;2022-12-18T15:11:45;-2.00;99.90
8214;DHT22;4148;47.974;7.824;2022-12-18T15:14:28;-2.10;99.90
8214;DHT22;4148;47.974;7.824;2022-12-18T15:16:58;-2.20;99.90
8214;DHT22;4148;47.974;7.824;2022-12-18T15:19:34;-2.20;99.90
8214;DHT22;4148;47.974;7.824;2022-12-18T15:22:03;-2.20;99.90
8214;DHT22;4148;47.974;7.824;2022-12-18T15:24:32;-2.20;99.90
8214;DHT22;4148;47.974;7.824;2022-12-18T15:27:02;-2.20;99.90
8214;DHT22;4148;47.974;7.824;2022-12-18T15:29:30;-2.20;99.90
8214;DHT22;4148;47.974;7.824;2022-12-18T15:32:00;-2.20;99.90
8214;DHT22;4148;47.974;7.824;2022-12-18T15:34:28;-2.20;99.90
8214;DHT22;4148;47.974;7.824;2022-12-18T15:36:56;-2.20;99.90
8214;DHT22;4148;47.974;7.824;2022-12-18T15:39:24;-2.20;99.90
8214;DHT22;4148;47.974;7.824;2022-12-18T15:41:52;-2.10;99.90
8214;DHT22;4148;47.974;7.824;2022-12-18T15:44:39;-2.10;99.90
8214;DHT22;4148;47.974;7.824;2022-12-18T15:47:11;-2.20;99.90
8214;DHT22;4148;47.974;7.824;2022-12-18T15:49:39;-2.20;99.90
8214;DHT22;4148;47.974;7.824;2022-12-18T15:52:12;-2.20;99.90
8214;DHT22;4148;47.974;7.824;2022-12-18T15:54:52;-2.30;99.90
8214;DHT22;4148;47.974;7.824;2022-12-18T15:57:38;-2.20;99.90
8214;DHT22;4148;47.974;7.824;2022-12-18T16:00:12;-2.20;99.90
8214;DHT22;4148;47.974;7.824;2022-12-18T16:02:40;-2.20;99.90
8214;DHT22;4148;47.974;7.824;2022-12-18T16:05:14;-2.10;99.90
8214;DHT22;4148;47.974;7.824;2022-12-18T16:07:43;-2.10;99.90
8214;DHT22;4148;47.974;7.824;2022-12-18T16:10:11;-2.20;99.90
8214;DHT22;4148;47.974;7.824;2022-12-18T16:12:39;-2.10;99.90
8214;DHT22;4148;47.974;7.824;2022-12-18T16:15:11;-2.00;99.90
8214;DHT22;4148;47.974;7.824;2022-12-18T16:17:43;-1.90;99.90
8214;DHT22;4148;47.974;7.824;2022-12-18T16:20:14;-1.70;99.90
8214;DHT22;4148;47.974;7.824;2022-12-18T16:22:43;-1.90;99.90
8214;DHT22;4148;47.974;7.824;2022-12-18T16:25:17;-1.90;99.90
8214;DHT22;4148;47.974;7.824;2022-12-18T16:27:46;-2.00;99.90
8214;DHT22;4148;47.974;7.824;2022-12-18T16:30:19;-2.00;99.90
8214;DHT22;4148;47.974;7.824;2022-12-18T16:32:48;-1.90;99.90
8214;DHT22;4148;47.974;7.824;2022-12-18T16:35:16;-2.00;99.90